Time;durP1;ratioP1;P1;durP2;ratioP2;P2;SDS_P1;SDS_P2;PMS_P1;PMS_P2;Temp;Humidity;BMP_temperature;BMP_pressure;BME280_temperature;BME280_humidity;BME280_pressure;Samples;Min_cycle;Max_cycle;Signal;HPM_P1;HPM_P2
2022/08/17 00:01:01;;;;;;;19.58;17.77;;;;;;;;;;4975225;28;20039;-75
2022/08/17 00:03:31;;;;;;;19.70;18.00;;;;;;;;;;4973338;28;20054;-75
2022/08/17 00:06:07;;;;;;;19.45;17.73;;;;;;;;;;4972734;28;20046;-75
2022/08/17 00:08:38;;;;;;;19.77;17.85;;;;;;;;;;4972318;28;20054;-75
2022/08/17 00:11:05;;;;;;;20.13;18.15;;;;;;;;;;4973232;28;20090;-75
2022/08/17 00:13:33;;;;;;;20.42;18.63;;;;;;;;;;4976785;28;20049;-75
2022/08/17 00:16:01;;;;;;;20.65;18.75;;;;;;;;;;4984236;28;20548;-75
2022/08/17 00:18:28;;;;;;;20.38;18.45;;;;;;;;;;4977386;28;20042;-75
2022/08/17 00:20:55;;;;;;;21.30;19.20;;;;;;;;;;4973780;28;20508;-75
2022/08/17 00:23:22;;;;;;;20.73;18.70;;;;;;;;;;4970796;28;20063;-75
2022/08/17 00:25:48;;;;;;;20.52;18.58;;;;;;;;;;4972222;28;20358;-75
2022/08/17 00:28:15;;;;;;;20.23;18.42;;;;;;;;;;4970435;28;20133;-75
2022/08/17 00:30:46;;;;;;;20.73;18.77;;;;;;;;;;4970750;28;20043;-75
2022/08/17 00:33:14;;;;;;;21.27;19.38;;;;;;;;;;4973804;28;20053;-75
2022/08/17 00:35:40;;;;;;;21.25;19.20;;;;;;;;;;4974829;28;20054;-75
2022/08/17 00:38:08;;;;;;;21.70;19.60;;;;;;;;;;4970776;28;20128;-75
2022/08/17 00:40:39;;;;;;;20.75;18.95;;;;;;;;;;4972492;28;20155;-75
2022/08/17 00:43:41;;;;;;;21.85;19.85;;;;;;;;;;4971602;28;20050;-75
2022/08/17 00:46:08;;;;;;;20.70;18.83;;;;;;;;;;4961290;28;20190;-75
2022/08/17 00:48:35;;;;;;;22.08;20.13;;;;;;;;;;4968146;28;20046;-75
2022/08/17 00:51:05;;;;;;;22.45;20.33;;;;;;;;;;4971212;28;20073;-75
2022/08/17 00:53:32;;;;;;;20.05;18.25;;;;;;;;;;4974967;28;20050;-75
2022/08/17 00:55:59;;;;;;;20.63;18.63;;;;;;;;;;4973004;28;20047;-75
2022/08/17 00:58:26;;;;;;;22.20;20.05;;;;;;;;;;4971377;28;20078;-75
2022/08/17 01:00:52;;;;;;;20.85;18.83;;;;;;;;;;4971919;28;20046;-75
2022/08/17 01:03:20;;;;;;;20.65;18.85;;;;;;;;;;4968833;28;20053;-75
2022/08/17 01:05:47;;;;;;;21.80;19.90;;;;;;;;;;4973556;28;20042;-75
2022/08/17 01:08:15;;;;;;;22.92;20.63;;;;;;;;;;4979008;28;20440;-75
2022/08/17 01:10:43;;;;;;;22.58;20.48;;;;;;;;;;4978810;28;20042;-75
2022/08/17 01:13:10;;;;;;;20.67;18.70;;;;;;;;;;4997139;28;20403;-75
2022/08/17 01:15:38;;;;;;;22.65;20.45;;;;;;;;;;4983149;28;20476;-75
2022/08/17 01:18:06;;;;;;;22.17;20.08;;;;;;;;;;4989243;28;20042;-75
2022/08/17 01:20:32;;;;;;;22.63;20.55;;;;;;;;;;4993362;28;20387;-75
2022/08/17 01:22:59;;;;;;;23.13;20.92;;;;;;;;;;4983262;28;20383;-75
2022/08/17 01:25:25;;;;;;;21.88;19.88;;;;;;;;;;4993983;28;20085;-75
2022/08/17 01:27:52;;;;;;;21.90;19.80;;;;;;;;;;4987587;28;20046;-75
2022/08/17 01:30:18;;;;;;;22.40;20.42;;;;;;;;;;4998976;28;20049;-75
2022/08/17 01:32:44;;;;;;;22.05;19.85;;;;;;;;;;5021873;28;20132;-75
2022/08/17 01:35:10;;;;;;;20.67;18.77;;;;;;;;;;4998833;28;20038;-75
2022/08/17 01:37:38;;;;;;;22.60;20.60;;;;;;;;;;4985607;28;20475;-75
2022/08/17 01:40:04;;;;;;;21.55;19.55;;;;;;;;;;4993888;28;20569;-75
2022/08/17 01:42:35;;;;;;;21.35;19.45;;;;;;;;;;4985496;28;20085;-75
2022/08/17 01:45:06;;;;;;;21.23;19.33;;;;;;;;;;5005642;28;20141;-75
2022/08/17 01:47:32;;;;;;;22.85;20.45;;;;;;;;;;4978647;28;20047;-75
2022/08/17 01:50:03;;;;;;;22.17;20.08;;;;;;;;;;4971453;28;20104;-75
2022/08/17 01:52:29;;;;;;;21.35;19.30;;;;;;;;;;4973048;28;20504;-75
2022/08/17 01:54:56;;;;;;;21.75;19.75;;;;;;;;;;4971010;28;20043;-75
2022/08/17 01:57:22;;;;;;;22.52;20.52;;;;;;;;;;4970943;28;20042;-75
2022/08/17 01:59:51;;;;;;;22.88;20.58;;;;;;;;;;4972695;28;20046;-75
2022/08/17 02:02:17;;;;;;;22.20;20.00;;;;;;;;;;4973861;28;20129;-75
2022/08/17 02:04:43;;;;;;;22.75;20.45;;;;;;;;;;4970440;28;20058;-75
2022/08/17 02:07:09;;;;;;;21.98;19.88;;;;;;;;;;4968398;28;20050;-75
2022/08/17 02:09:35;;;;;;;23.50;21.27;;;;;;;;;;4973814;28;20084;-75
2022/08/17 02:12:02;;;;;;;22.73;20.35;;;;;;;;;;4972794;28;20491;-75
2022/08/17 02:14:28;;;;;;;23.52;21.27;;;;;;;;;;4990883;28;20050;-75
2022/08/17 02:16:55;;;;;;;23.73;21.55;;;;;;;;;;4973662;28;20043;-75
2022/08/17 02:19:21;;;;;;;23.25;21.00;;;;;;;;;;4987082;28;20041;-75
2022/08/17 02:21:48;;;;;;;23.08;20.90;;;;;;;;;;4982404;28;20053;-75
2022/08/17 02:24:23;;;;;;;23.65;21.38;;;;;;;;;;4982777;28;20402;-75
2022/08/17 02:26:49;;;;;;;23.80;21.45;;;;;;;;;;4997595;28;20054;-75
2022/08/17 02:29:15;;;;;;;23.77;21.48;;;;;;;;;;4991274;28;20044;-75
2022/08/17 02:31:42;;;;;;;23.60;21.40;;;;;;;;;;4986522;28;20042;-75
2022/08/17 02:34:08;;;;;;;24.40;21.90;;;;;;;;;;4985199;28;20030;-75
2022/08/17 02:36:34;;;;;;;23.15;20.95;;;;;;;;;;4987030;28;20494;-75
2022/08/17 02:39:05;;;;;;;24.75;22.45;;;;;;;;;;5001419;28;20441;-75
2022/08/17 02:41:31;;;;;;;24.70;22.17;;;;;;;;;;4971275;28;20047;-75
2022/08/17 02:43:57;;;;;;;25.05;22.63;;;;;;;;;;4978774;28;20539;-75
2022/08/17 02:46:23;;;;;;;23.33;21.02;;;;;;;;;;4992874;28;20057;-75
2022/08/17 02:48:49;;;;;;;23.73;21.52;;;;;;;;;;4977959;28;20486;-75
2022/08/17 02:51:16;;;;;;;22.95;20.65;;;;;;;;;;4987996;28;20140;-75
2022/08/17 02:53:42;;;;;;;22.67;20.67;;;;;;;;;;4984045;28;20093;-75
2022/08/17 02:56:08;;;;;;;23.52;21.15;;;;;;;;;;4970666;28;20042;-75
2022/08/17 02:58:34;;;;;;;24.95;22.63;;;;;;;;;;4988996;28;20537;-75
2022/08/17 03:01:00;;;;;;;23.70;21.45;;;;;;;;;;4977640;28;20070;-75
2022/08/17 03:03:26;;;;;;;24.77;21.83;;;;;;;;;;4979861;28;20042;-75
2022/08/17 03:05:52;;;;;;;22.65;20.63;;;;;;;;;;4989169;28;20390;-75
2022/08/17 03:08:18;;;;;;;22.77;20.58;;;;;;;;;;4980527;28;20372;-75
2022/08/17 03:10:45;;;;;;;24.00;21.70;;;;;;;;;;4998130;28;20670;-75
2022/08/17 03:13:13;;;;;;;23.63;21.17;;;;;;;;;;4986206;28;20125;-75
2022/08/17 03:15:40;;;;;;;24.52;22.17;;;;;;;;;;4976468;28;20050;-75
2022/08/17 03:18:06;;;;;;;23.75;21.45;;;;;;;;;;4991004;28;20093;-75
2022/08/17 03:20:35;;;;;;;23.75;21.55;;;;;;;;;;4997392;28;20112;-75
2022/08/17 03:23:01;;;;;;;21.65;19.65;;;;;;;;;;5020271;28;20438;-75
2022/08/17 03:25:28;;;;;;;24.23;21.90;;;;;;;;;;4998505;28;20502;-76
2022/08/17 03:27:55;;;;;;;23.77;21.67;;;;;;;;;;4982011;28;20499;-75
2022/08/17 03:30:24;;;;;;;24.08;21.73;;;;;;;;;;4993997;28;20065;-75
2022/08/17 03:32:51;;;;;;;23.67;21.42;;;;;;;;;;4994753;28;20053;-75
2022/08/17 03:35:18;;;;;;;24.60;22.30;;;;;;;;;;4989125;28;20120;-75
2022/08/17 03:37:45;;;;;;;23.83;21.52;;;;;;;;;;5002799;28;20046;-75
2022/08/17 03:40:11;;;;;;;23.65;21.45;;;;;;;;;;4991104;28;20047;-75
2022/08/17 03:42:38;;;;;;;25.60;23.13;;;;;;;;;;4989122;28;20379;-75
2022/08/17 03:45:05;;;;;;;24.25;21.85;;;;;;;;;;4987602;28;20047;-75
2022/08/17 03:58:35;;;;;;;25.83;23.33;;;;;;;;;;4993092;28;20045;-75
2022/08/17 04:01:01;;;;;;;25.50;23.05;;;;;;;;;;4986610;28;20052;-75
2022/08/17 04:03:27;;;;;;;24.83;22.52;;;;;;;;;;4998578;28;20054;-75
2022/08/17 04:05:53;;;;;;;23.95;21.65;;;;;;;;;;4977380;28;20447;-75
2022/08/17 04:08:19;;;;;;;24.70;22.25;;;;;;;;;;4982682;28;20049;-76
2022/08/17 04:10:46;;;;;;;24.85;22.45;;;;;;;;;;4981010;28;20049;-75
2022/08/17 04:13:12;;;;;;;24.60;22.40;;;;;;;;;;4981609;28;20557;-75
2022/08/17 04:15:38;;;;;;;24.00;21.88;;;;;;;;;;4990364;28;20095;-75
2022/08/17 04:18:05;;;;;;;25.08;22.70;;;;;;;;;;4988150;28;20049;-75
2022/08/17 04:20:31;;;;;;;24.40;22.15;;;;;;;;;;4995042;28;20043;-74
2022/08/17 04:23:08;;;;;;;24.42;22.23;;;;;;;;;;4980986;28;21317;-76
2022/08/17 04:25:35;;;;;;;24.77;22.48;;;;;;;;;;5018441;28;20065;-75
2022/08/17 04:28:02;;;;;;;27.10;24.42;;;;;;;;;;4976216;28;20506;-75
2022/08/17 04:30:30;;;;;;;27.52;25.02;;;;;;;;;;4994575;28;20050;-75
2022/08/17 04:33:08;;;;;;;27.95;25.35;;;;;;;;;;4978759;28;20105;-75
2022/08/17 04:35:36;;;;;;;26.50;24.20;;;;;;;;;;4983128;28;20132;-75
2022/08/17 04:38:02;;;;;;;27.50;24.85;;;;;;;;;;5013158;28;20050;-75
2022/08/17 04:43:15;;;;;;;26.20;23.60;;;;;;;;;;4988481;28;20043;-75
2022/08/17 04:45:43;;;;;;;25.30;23.00;;;;;;;;;;4982924;28;20054;-75
2022/08/17 04:48:09;;;;;;;27.48;24.90;;;;;;;;;;4987117;28;20047;-76
2022/08/17 04:50:36;;;;;;;26.88;24.48;;;;;;;;;;4990956;28;20046;-75
2022/08/17 04:53:02;;;;;;;26.02;23.52;;;;;;;;;;4978426;28;20133;-75
2022/08/17 04:55:28;;;;;;;26.67;24.25;;;;;;;;;;4977392;28;20066;-75
2022/08/17 04:57:54;;;;;;;27.95;25.15;;;;;;;;;;5014585;28;20406;-75
2022/08/17 05:00:20;;;;;;;27.90;25.20;;;;;;;;;;4979676;28;20562;-75
2022/08/17 05:02:47;;;;;;;28.63;26.13;;;;;;;;;;4992238;28;20050;-75
2022/08/17 05:05:17;;;;;;;28.13;25.52;;;;;;;;;;4983242;28;20180;-75
2022/08/17 05:07:43;;;;;;;28.63;25.85;;;;;;;;;;4981974;28;20554;-75
2022/08/17 05:10:09;;;;;;;26.58;24.17;;;;;;;;;;4984129;28;20131;-75
2022/08/17 05:12:35;;;;;;;28.17;25.60;;;;;;;;;;4967844;28;20057;-76
2022/08/17 05:15:01;;;;;;;27.92;25.02;;;;;;;;;;4984075;28;20046;-75
2022/08/17 05:17:27;;;;;;;29.20;26.42;;;;;;;;;;4989984;28;20078;-75
2022/08/17 05:19:53;;;;;;;29.25;26.42;;;;;;;;;;5013387;28;20051;-75
2022/08/17 05:22:19;;;;;;;29.95;26.95;;;;;;;;;;4986556;28;20510;-75
2022/08/17 05:24:45;;;;;;;28.02;25.13;;;;;;;;;;4983393;28;20077;-75
2022/08/17 05:27:11;;;;;;;28.70;25.90;;;;;;;;;;4990962;28;20051;-76
2022/08/17 05:29:38;;;;;;;29.00;26.10;;;;;;;;;;4986624;28;20053;-75
2022/08/17 05:32:10;;;;;;;30.45;27.52;;;;;;;;;;4992828;28;20483;-75
2022/08/17 05:34:36;;;;;;;30.75;27.77;;;;;;;;;;4989242;28;20133;-76
2022/08/17 05:37:02;;;;;;;31.23;28.15;;;;;;;;;;4978008;28;20133;-76
2022/08/17 05:39:28;;;;;;;29.10;26.45;;;;;;;;;;5004001;28;20054;-76
2022/08/17 05:41:54;;;;;;;31.52;28.25;;;;;;;;;;4985165;28;20050;-76
2022/08/17 05:44:20;;;;;;;30.70;27.67;;;;;;;;;;4989580;28;20054;-75
2022/08/17 05:46:50;;;;;;;33.08;29.55;;;;;;;;;;4970554;28;20486;-75
2022/08/17 05:49:18;;;;;;;31.63;28.52;;;;;;;;;;4971570;28;20098;-76
2022/08/17 05:51:50;;;;;;;30.92;27.80;;;;;;;;;;4970197;28;20042;-75
2022/08/17 05:54:29;;;;;;;30.07;27.37;;;;;;;;;;4975012;28;20079;-75
2022/08/17 05:57:02;;;;;;;29.63;26.75;;;;;;;;;;4982095;28;20045;-75
2022/08/17 05:59:34;;;;;;;31.40;28.38;;;;;;;;;;4978057;28;20122;-76
2022/08/17 06:02:09;;;;;;;28.42;25.73;;;;;;;;;;4999409;28;20058;-76
2022/08/17 06:04:44;;;;;;;28.20;25.52;;;;;;;;;;4967676;28;20054;-76
2022/08/17 06:07:16;;;;;;;30.15;27.40;;;;;;;;;;4968716;28;20054;-75
2022/08/17 06:10:00;;;;;;;28.67;25.97;;;;;;;;;;4974265;28;20133;-75
2022/08/17 06:12:26;;;;;;;27.88;25.23;;;;;;;;;;4999885;28;20082;-76
2022/08/17 06:15:18;;;;;;;27.90;25.08;;;;;;;;;;4973123;28;20035;-76
2022/08/17 06:17:44;;;;;;;29.50;26.52;;;;;;;;;;4970440;28;20058;-76
2022/08/17 06:20:12;;;;;;;28.13;25.45;;;;;;;;;;4968743;28;20066;-76
2022/08/17 06:22:44;;;;;;;28.70;25.85;;;;;;;;;;4971200;28;20510;-75
2022/08/17 06:25:13;;;;;;;29.48;26.55;;;;;;;;;;4971122;28;20141;-75
2022/08/17 06:27:44;;;;;;;27.98;25.10;;;;;;;;;;4968400;28;20050;-75
2022/08/17 06:30:15;;;;;;;31.38;26.63;;;;;;;;;;4969973;28;20053;-76
2022/08/17 06:32:45;;;;;;;29.55;26.67;;;;;;;;;;4974479;28;20051;-76
2022/08/17 06:35:13;;;;;;;30.05;27.05;;;;;;;;;;4969317;28;20502;-76
2022/08/17 06:37:42;;;;;;;30.80;27.70;;;;;;;;;;4982805;28;20093;-76
2022/08/17 06:40:44;;;;;;;29.88;26.92;;;;;;;;;;4993486;28;20043;-76
2022/08/17 06:43:11;;;;;;;31.40;28.25;;;;;;;;;;4975792;28;20066;-75
2022/08/17 06:45:47;;;;;;;31.48;28.40;;;;;;;;;;4988095;28;20315;-75
2022/08/17 06:48:23;;;;;;;30.42;27.42;;;;;;;;;;4986708;28;20038;-76
2022/08/17 06:50:52;;;;;;;30.85;27.80;;;;;;;;;;4975196;28;20042;-75
2022/08/17 06:53:27;;;;;;;29.38;26.55;;;;;;;;;;4981063;28;20053;-75
2022/08/17 06:55:53;;;;;;;30.10;27.20;;;;;;;;;;4984074;28;20051;-75
2022/08/17 06:58:23;;;;;;;28.27;25.58;;;;;;;;;;5012431;28;20073;-75
2022/08/17 07:00:51;;;;;;;29.60;26.73;;;;;;;;;;5006352;28;20057;-76
2022/08/17 07:03:28;;;;;;;27.83;25.13;;;;;;;;;;4992513;28;20491;-76
2022/08/17 07:05:59;;;;;;;27.98;25.48;;;;;;;;;;4994745;28;20054;-76
2022/08/17 07:08:43;;;;;;;28.25;25.60;;;;;;;;;;5001096;28;20405;-76
2022/08/17 07:11:12;;;;;;;27.10;24.52;;;;;;;;;;4997810;28;20047;-76
2022/08/17 07:13:45;;;;;;;26.25;23.65;;;;;;;;;;5017714;28;20049;-75
2022/08/17 07:16:32;;;;;;;28.17;25.50;;;;;;;;;;4975825;28;20093;-76
2022/08/17 07:18:58;;;;;;;26.98;24.58;;;;;;;;;;4992914;28;20050;-76
2022/08/17 07:21:32;;;;;;;27.90;25.30;;;;;;;;;;4983059;28;20051;-76
2022/08/17 07:24:02;;;;;;;29.08;26.27;;;;;;;;;;4987487;28;20635;-76
2022/08/17 07:26:29;;;;;;;28.33;25.55;;;;;;;;;;4992505;28;20065;-76
2022/08/17 07:28:55;;;;;;;28.02;25.27;;;;;;;;;;4983230;28;20056;-75
2022/08/17 07:31:21;;;;;;;26.65;24.25;;;;;;;;;;4997938;28;20056;-76
2022/08/17 07:34:05;;;;;;;27.33;24.83;;;;;;;;;;4999853;28;20497;-76
2022/08/17 07:36:33;;;;;;;26.33;23.92;;;;;;;;;;4980884;28;20054;-76
2022/08/17 07:38:59;;;;;;;28.23;25.52;;;;;;;;;;4989604;28;20065;-76
2022/08/17 07:41:26;;;;;;;28.08;25.38;;;;;;;;;;4983822;28;20450;-76
2022/08/17 07:43:52;;;;;;;26.17;23.60;;;;;;;;;;4992264;28;20088;-76
2022/08/17 07:49:31;;;;;;;24.33;22.15;;;;;;;;;;4991464;28;20051;-76
2022/08/17 07:51:59;;;;;;;25.25;22.88;;;;;;;;;;4987065;28;20875;-75
2022/08/17 07:54:34;;;;;;;23.95;21.85;;;;;;;;;;4990711;28;20050;-75
2022/08/17 07:57:12;;;;;;;22.30;20.25;;;;;;;;;;4993678;28;20101;-75
2022/08/17 07:59:57;;;;;;;26.40;21.80;;;;;;;;;;4991738;28;20405;-75
2022/08/17 08:02:28;;;;;;;22.92;20.83;;;;;;;;;;4986711;28;20045;-76
2022/08/17 08:05:03;;;;;;;22.48;20.48;;;;;;;;;;4988079;28;20386;-75
2022/08/17 08:07:33;;;;;;;23.42;21.00;;;;;;;;;;4984451;28;20045;-75
2022/08/17 08:10:26;;;;;;;24.40;21.85;;;;;;;;;;4995340;28;20054;-74
2022/08/17 08:13:13;;;;;;;24.30;21.73;;;;;;;;;;5016821;28;20050;-74
2022/08/17 08:15:47;;;;;;;24.05;21.70;;;;;;;;;;4988908;28;20058;-74
2022/08/17 08:18:33;;;;;;;22.60;20.48;;;;;;;;;;4979423;28;20059;-74
2022/08/17 08:20:59;;;;;;;23.05;20.75;;;;;;;;;;5016330;28;20193;-74
2022/08/17 08:23:44;;;;;;;22.33;19.98;;;;;;;;;;4983332;28;20133;-73
2022/08/17 08:26:45;;;;;;;22.77;20.65;;;;;;;;;;4982386;28;20518;-73
2022/08/17 08:29:14;;;;;;;22.88;20.73;;;;;;;;;;4991748;28;20121;-74
2022/08/17 08:31:53;;;;;;;21.23;19.23;;;;;;;;;;5018323;28;20049;-73
2022/08/17 08:34:25;;;;;;;22.48;20.38;;;;;;;;;;4990354;28;20059;-73
2022/08/17 08:37:16;;;;;;;20.53;18.63;;;;;;;;;;4987564;28;20446;-74
2022/08/17 08:39:48;;;;;;;22.25;20.13;;;;;;;;;;4991926;28;20046;-74
2022/08/17 08:42:22;;;;;;;22.15;19.95;;;;;;;;;;4993667;28;20034;-74
2022/08/17 08:44:59;;;;;;;22.48;20.38;;;;;;;;;;5025590;28;20046;-73
2022/08/17 08:47:43;;;;;;;22.30;20.23;;;;;;;;;;4983835;28;20062;-73
2022/08/17 08:50:22;;;;;;;20.38;18.55;;;;;;;;;;4991711;28;20045;-73
2022/08/17 08:52:48;;;;;;;20.02;18.17;;;;;;;;;;4980624;28;20054;-73
2022/08/17 08:55:25;;;;;;;19.52;17.67;;;;;;;;;;4998479;28;20045;-73
2022/08/17 08:57:57;;;;;;;18.63;16.92;;;;;;;;;;5012046;28;20042;-73
2022/08/17 09:00:24;;;;;;;19.70;17.80;;;;;;;;;;4986234;28;20069;-75
2022/08/17 09:03:10;;;;;;;19.30;17.45;;;;;;;;;;4989830;28;20051;-74
2022/08/17 09:05:39;;;;;;;20.02;18.33;;;;;;;;;;4988987;28;20043;-74
2022/08/17 09:08:18;;;;;;;19.55;17.95;;;;;;;;;;4987180;28;20380;-74
2022/08/17 09:10:44;;;;;;;20.55;18.70;;;;;;;;;;4989699;28;20050;-74
2022/08/17 09:13:20;;;;;;;21.02;19.23;;;;;;;;;;4989254;28;20043;-73
2022/08/17 09:15:49;;;;;;;20.83;18.83;;;;;;;;;;4993253;28;20565;-73
2022/08/17 09:18:20;;;;;;;21.40;19.30;;;;;;;;;;4992976;28;20046;-74
2022/08/17 09:20:52;;;;;;;21.98;20.10;;;;;;;;;;4984535;28;20050;-74
2022/08/17 09:23:25;;;;;;;22.98;20.88;;;;;;;;;;4987643;28;20042;-73
2022/08/17 09:25:57;;;;;;;23.08;21.05;;;;;;;;;;5028004;28;20128;-73
2022/08/17 09:28:34;;;;;;;24.13;21.88;;;;;;;;;;4978789;28;20495;-73
2022/08/17 09:31:05;;;;;;;22.40;20.48;;;;;;;;;;4991223;28;20038;-74
2022/08/17 09:33:33;;;;;;;23.08;21.02;;;;;;;;;;4992718;28;20038;-73
2022/08/17 09:36:02;;;;;;;23.08;20.98;;;;;;;;;;4997972;28;20050;-73
2022/08/17 09:38:34;;;;;;;21.27;19.42;;;;;;;;;;4983994;28;20053;-73
2022/08/17 09:41:03;;;;;;;20.73;18.73;;;;;;;;;;4991786;28;20061;-73
2022/08/17 09:43:29;;;;;;;18.08;16.42;;;;;;;;;;4988777;28;20050;-72
2022/08/17 09:45:58;;;;;;;14.73;13.32;;;;;;;;;;4989630;28;20053;-73
2022/08/17 09:48:27;;;;;;;14.90;13.50;;;;;;;;;;4986591;28;20042;-73
2022/08/17 09:51:12;;;;;;;13.50;12.38;;;;;;;;;;4994808;28;20046;-73
2022/08/17 09:53:39;;;;;;;12.63;11.40;;;;;;;;;;4989673;28;20046;-73
2022/08/17 09:56:11;;;;;;;12.40;11.13;;;;;;;;;;4993144;28;20057;-73
2022/08/17 09:59:00;;;;;;;12.15;11.05;;;;;;;;;;4991777;28;20129;-73
2022/08/17 10:01:30;;;;;;;11.38;10.30;;;;;;;;;;4987595;28;20589;-73
2022/08/17 10:04:19;;;;;;;13.05;11.45;;;;;;;;;;4988239;28;20124;-73
2022/08/17 10:06:49;;;;;;;13.23;12.02;;;;;;;;;;5018619;28;20054;-73
2022/08/17 10:09:27;;;;;;;14.18;12.88;;;;;;;;;;4989974;28;20041;-73
2022/08/17 10:12:18;;;;;;;14.57;13.25;;;;;;;;;;4987131;28;20050;-73
2022/08/17 10:14:57;;;;;;;14.52;13.15;;;;;;;;;;4980219;28;20054;-73
2022/08/17 10:17:36;;;;;;;14.82;13.50;;;;;;;;;;4998961;28;21716;-73
2022/08/17 10:20:08;;;;;;;15.68;14.20;;;;;;;;;;4998157;28;20452;-74
2022/08/17 10:28:10;;;;;;;13.45;12.25;;;;;;;;;;4986058;28;20061;-73
2022/08/17 10:30:43;;;;;;;12.13;11.02;;;;;;;;;;5000364;28;20060;-73
2022/08/17 10:33:12;;;;;;;;;;;;;;;;;;4975225;28;20406;-73
2022/08/17 10:36:10;;;;;;;12.07;10.93;;;;;;;;;;4977911;28;19922;-74
2022/08/17 10:38:46;;;;;;;11.73;10.75;;;;;;;;;;4969779;28;20053;-74
2022/08/17 10:41:22;;;;;;;13.05;11.85;;;;;;;;;;4984702;28;20403;-74
2022/08/17 10:43:56;;;;;;;12.40;11.25;;;;;;;;;;4984399;28;20049;-73
2022/08/17 10:46:26;;;;;;;12.02;11.02;;;;;;;;;;4977324;28;20131;-74
2022/08/17 10:49:10;;;;;;;10.70;9.77;;;;;;;;;;4989012;28;20073;-74
2022/08/17 10:51:37;;;;;;;10.43;9.38;;;;;;;;;;4989458;28;20082;-74
2022/08/17 10:54:23;;;;;;;10.88;9.75;;;;;;;;;;4986039;28;20050;-74
2022/08/17 10:56:50;;;;;;;9.60;8.80;;;;;;;;;;4993213;28;20061;-74
2022/08/17 10:59:35;;;;;;;11.65;9.70;;;;;;;;;;4979051;28;20047;-72
2022/08/17 11:02:04;;;;;;;9.18;8.27;;;;;;;;;;5015634;28;20081;-72
2022/08/17 11:04:33;;;;;;;13.43;8.05;;;;;;;;;;4984789;28;20478;-72
2022/08/17 11:07:05;;;;;;;8.60;7.80;;;;;;;;;;4987637;28;20077;-72
2022/08/17 11:09:51;;;;;;;7.88;7.13;;;;;;;;;;4986513;28;20065;-72
2022/08/17 11:12:26;;;;;;;8.13;7.30;;;;;;;;;;4992663;28;20449;-71
2022/08/17 11:14:55;;;;;;;8.73;7.18;;;;;;;;;;4976859;28;20486;-71
2022/08/17 11:17:30;;;;;;;10.00;7.45;;;;;;;;;;4990660;28;20053;-72
2022/08/17 11:20:08;;;;;;;11.93;7.78;;;;;;;;;;5000704;28;20045;-72
2022/08/17 11:22:40;;;;;;;11.80;8.02;;;;;;;;;;5025843;28;20054;-72
2022/08/17 11:25:14;;;;;;;9.32;7.93;;;;;;;;;;4989685;28;20058;-71
2022/08/17 11:27:40;;;;;;;9.75;8.30;;;;;;;;;;4988645;28;20065;-72
2022/08/17 11:30:08;;;;;;;11.75;8.73;;;;;;;;;;4986671;28;20407;-72
2022/08/17 11:32:43;;;;;;;9.63;8.70;;;;;;;;;;4994102;28;20051;-72
2022/08/17 11:35:21;;;;;;;11.32;8.68;;;;;;;;;;4982392;28;20407;-71
2022/08/17 11:37:53;;;;;;;12.32;8.30;;;;;;;;;;4977189;28;20668;-73
2022/08/17 11:40:43;;;;;;;10.43;7.60;;;;;;;;;;4986289;28;20490;-72
2022/08/17 11:43:22;;;;;;;10.75;7.97;;;;;;;;;;4995326;28;20436;-72
2022/08/17 11:46:06;;;;;;;10.57;8.10;;;;;;;;;;4977239;28;20403;-72
2022/08/17 11:51:46;;;;;;;10.63;7.88;;;;;;;;;;4990917;28;20046;-73
2022/08/17 11:54:18;;;;;;;13.02;7.93;;;;;;;;;;4989706;28;20042;-72
2022/08/17 11:56:48;;;;;;;8.75;7.78;;;;;;;;;;5022096;28;20046;-73
2022/08/17 11:59:35;;;;;;;14.65;7.80;;;;;;;;;;4985790;28;20096;-73
2022/08/17 12:02:02;;;;;;;9.10;7.80;;;;;;;;;;4985550;28;20054;-73
2022/08/17 12:04:30;;;;;;;10.27;7.25;;;;;;;;;;4983353;28;20046;-74
2022/08/17 12:07:05;;;;;;;8.60;6.68;;;;;;;;;;4989485;28;20142;-73
2022/08/17 12:09:33;;;;;;;10.57;6.40;;;;;;;;;;4987011;28;20479;-73
2022/08/17 12:12:04;;;;;;;8.80;5.93;;;;;;;;;;4994582;28;20133;-73
2022/08/17 12:14:32;;;;;;;10.55;5.97;;;;;;;;;;4990362;28;20062;-73
2022/08/17 12:17:00;;;;;;;12.15;6.50;;;;;;;;;;5017370;28;20084;-73
2022/08/17 12:19:28;;;;;;;11.90;6.45;;;;;;;;;;4986627;28;20490;-73
2022/08/17 12:21:58;;;;;;;10.85;6.57;;;;;;;;;;4992997;28;20410;-73
2022/08/17 12:24:31;;;;;;;9.55;6.28;;;;;;;;;;4986486;28;20109;-73
2022/08/17 12:26:57;;;;;;;;;;;;;;;;;;4989296;28;20049;-74
2022/08/17 12:29:23;;;;;;;9.52;6.25;;;;;;;;;;4989230;28;19922;-73
2022/08/17 12:31:51;;;;;;;9.80;6.53;;;;;;;;;;4989222;28;20479;-74
2022/08/17 12:34:22;;;;;;;8.70;7.00;;;;;;;;;;4991386;28;20049;-73
2022/08/17 12:36:49;;;;;;;8.40;6.20;;;;;;;;;;5000762;28;20521;-73
2022/08/17 12:39:22;;;;;;;8.65;6.57;;;;;;;;;;4995012;28;20046;-74
2022/08/17 12:41:55;;;;;;;9.55;6.78;;;;;;;;;;5000069;28;20050;-74
2022/08/17 12:44:22;;;;;;;8.85;6.93;;;;;;;;;;5000913;28;20398;-75
2022/08/17 12:46:54;;;;;;;9.85;6.95;;;;;;;;;;4996570;28;20038;-75
2022/08/17 12:49:28;;;;;;;10.65;6.70;;;;;;;;;;5001392;28;20069;-75
2022/08/17 12:52:00;;;;;;;9.75;6.60;;;;;;;;;;5005488;28;20121;-75
2022/08/17 12:54:30;;;;;;;9.75;5.75;;;;;;;;;;5002970;28;20058;-75
2022/08/17 12:56:57;;;;;;;12.88;5.97;;;;;;;;;;4997423;28;20038;-75
2022/08/17 12:59:23;;;;;;;9.60;5.80;;;;;;;;;;4988872;28;20050;-75
2022/08/17 13:01:49;;;;;;;8.18;5.43;;;;;;;;;;4991340;28;20034;-75
2022/08/17 13:04:15;;;;;;;15.50;6.13;;;;;;;;;;4991757;28;20469;-75
2022/08/17 13:06:47;;;;;;;5.45;4.72;;;;;;;;;;4990213;28;20120;-75
2022/08/17 13:09:17;;;;;;;7.28;5.20;;;;;;;;;;5018150;28;20445;-75
2022/08/17 13:11:51;;;;;;;7.35;4.72;;;;;;;;;;5006352;28;20120;-76
2022/08/17 13:14:18;;;;;;;5.82;5.00;;;;;;;;;;4990583;28;20050;-76
2022/08/17 13:16:52;;;;;;;5.45;4.47;;;;;;;;;;4988038;28;20042;-75
2022/08/17 13:19:20;;;;;;;8.27;5.00;;;;;;;;;;5001774;28;20108;-75
2022/08/17 13:21:51;;;;;;;6.63;5.10;;;;;;;;;;4985617;28;20113;-75
2022/08/17 13:24:22;;;;;;;8.15;5.20;;;;;;;;;;4999603;28;20046;-75
2022/08/17 13:26:48;;;;;;;7.35;5.32;;;;;;;;;;5015812;28;20482;-75
2022/08/17 13:29:35;;;;;;;6.38;5.03;;;;;;;;;;4997865;28;20038;-75
2022/08/17 13:32:08;;;;;;;5.38;4.85;;;;;;;;;;4996166;28;20045;-75
2022/08/17 13:34:47;;;;;;;7.85;5.18;;;;;;;;;;4993902;28;20117;-76
2022/08/17 13:37:29;;;;;;;5.65;4.82;;;;;;;;;;4990371;28;20505;-75
2022/08/17 13:39:58;;;;;;;4.90;4.45;;;;;;;;;;4994017;28;20038;-75
2022/08/17 13:42:33;;;;;;;4.93;4.47;;;;;;;;;;4987471;28;20513;-75
2022/08/17 13:44:59;;;;;;;5.43;4.68;;;;;;;;;;4997210;28;20085;-75
2022/08/17 13:47:26;;;;;;;6.85;4.68;;;;;;;;;;4989990;28;20739;-75
2022/08/17 13:49:54;;;;;;;7.45;5.13;;;;;;;;;;5003359;28;20076;-74
2022/08/17 13:52:40;;;;;;;6.47;4.53;;;;;;;;;;4988519;28;20042;-75
2022/08/17 13:55:15;;;;;;;5.57;4.90;;;;;;;;;;4992587;28;20054;-75
2022/08/17 13:57:44;;;;;;;6.97;4.70;;;;;;;;;;4990270;28;20045;-75
2022/08/17 14:00:17;;;;;;;6.00;4.50;;;;;;;;;;4987903;28;20104;-75
2022/08/17 14:02:43;;;;;;;5.30;4.80;;;;;;;;;;4986920;28;20053;-75
2022/08/17 14:05:09;;;;;;;5.03;4.50;;;;;;;;;;4991790;28;20046;-75
2022/08/17 14:07:36;;;;;;;5.00;4.40;;;;;;;;;;4983004;28;20073;-75
2022/08/17 14:10:20;;;;;;;4.60;4.20;;;;;;;;;;4986001;28;20053;-75
2022/08/17 14:12:46;;;;;;;4.80;4.07;;;;;;;;;;4982363;28;20050;-75
2022/08/17 14:15:14;;;;;;;5.43;4.10;;;;;;;;;;4987262;28;20113;-75
2022/08/17 14:17:40;;;;;;;5.93;4.30;;;;;;;;;;4986086;28;20483;-76
2022/08/17 14:20:08;;;;;;;5.45;4.20;;;;;;;;;;4987629;28;20429;-75
2022/08/17 14:22:36;;;;;;;6.22;3.97;;;;;;;;;;4982622;28;20042;-75
2022/08/17 14:25:04;;;;;;;4.32;4.00;;;;;;;;;;4997605;28;20108;-76
2022/08/17 14:27:32;;;;;;;7.15;4.15;;;;;;;;;;4982134;28;20056;-75
2022/08/17 14:30:01;;;;;;;5.30;4.20;;;;;;;;;;4987158;28;20570;-76
2022/08/17 14:32:29;;;;;;;4.75;4.13;;;;;;;;;;4980199;28;20534;-76
2022/08/17 14:34:56;;;;;;;5.03;4.15;;;;;;;;;;4991608;28;20562;-75
2022/08/17 14:37:26;;;;;;;4.70;4.03;;;;;;;;;;4983484;28;20064;-76
2022/08/17 14:39:56;;;;;;;4.40;4.00;;;;;;;;;;4979218;28;20411;-75
2022/08/17 14:42:27;;;;;;;5.35;4.38;;;;;;;;;;4990644;28;20050;-76
2022/08/17 14:44:54;;;;;;;4.55;4.15;;;;;;;;;;4990480;28;20035;-75
2022/08/17 14:47:20;;;;;;;5.85;4.72;;;;;;;;;;4984402;28;20111;-75
2022/08/17 14:49:47;;;;;;;6.05;4.95;;;;;;;;;;4981978;28;20038;-75
2022/08/17 14:52:13;;;;;;;8.45;5.88;;;;;;;;;;4983264;28;20050;-75
2022/08/17 14:54:39;;;;;;;9.10;6.70;;;;;;;;;;4984358;28;20057;-74
2022/08/17 14:57:06;;;;;;;14.48;6.72;;;;;;;;;;4973378;28;20151;-73
2022/08/17 14:59:32;;;;;;;7.72;6.35;;;;;;;;;;4984430;28;20505;-75
2022/08/17 15:01:59;;;;;;;11.48;7.40;;;;;;;;;;4977856;28;20050;-75
2022/08/17 15:04:25;;;;;;;11.45;7.30;;;;;;;;;;4981169;28;20081;-76
2022/08/17 15:06:51;;;;;;;8.60;6.95;;;;;;;;;;4975874;28;20043;-75
2022/08/17 15:09:17;;;;;;;11.25;7.40;;;;;;;;;;4982984;28;20043;-75